Time;durP1;ratioP1;P1;durP2;ratioP2;P2;SDS_P1;SDS_P2;PMS_P1;PMS_P2;Temp;Humidity;BMP_temperature;BMP_pressure;BME280_temperature;BME280_humidity;BME280_pressure;Samples;Min_cycle;Max_cycle;Signal;HPM_P1;HPM_P2
2021/07/10 00:01:13;;;;;;;1.65;1.10;;;17.30;76.90;;;;;;5052279;28;20040;-80
2021/07/10 00:03:39;;;;;;;1.20;1.10;;;17.20;76.90;;;;;;5033144;28;20454;-80
2021/07/10 00:06:05;;;;;;;2.13;1.27;;;17.10;77.00;;;;;;5032627;28;20049;-80
2021/07/10 00:08:31;;;;;;;2.08;1.42;;;17.10;77.10;;;;;;5016572;28;20128;-81
2021/07/10 00:10:57;;;;;;;1.45;1.10;;;17.10;77.20;;;;;;5015839;28;20181;-80
2021/07/10 00:13:24;;;;;;;1.73;1.30;;;17.10;77.20;;;;;;5016043;28;20126;-80
2021/07/10 00:15:50;;;;;;;1.60;1.20;;;17.10;77.20;;;;;;5016111;28;20440;-80
2021/07/10 00:18:16;;;;;;;1.92;1.13;;;17.20;77.20;;;;;;5032415;28;20049;-80
2021/07/10 00:20:42;;;;;;;1.10;1.00;;;17.10;77.20;;;;;;5015798;28;20037;-80
2021/07/10 00:23:08;;;;;;;1.80;1.42;;;17.10;77.20;;;;;;5039350;28;20048;-80
2021/07/10 00:25:34;;;;;;;1.50;1.15;;;17.10;77.30;;;;;;5033012;28;20036;-80
2021/07/10 00:27:59;;;;;;;1.88;1.20;;;17.10;77.30;;;;;;5058659;28;20532;-80
2021/07/10 00:30:25;;;;;;;1.30;1.20;;;17.10;77.40;;;;;;5059345;28;20075;-80
2021/07/10 00:32:51;;;;;;;1.30;1.10;;;17.10;77.50;;;;;;5093667;28;20047;-80
2021/07/10 00:35:17;;;;;;;2.03;1.20;;;17.00;77.50;;;;;;5108458;28;20228;-80
2021/07/10 00:37:43;;;;;;;1.10;0.90;;;16.90;77.50;;;;;;5100155;28;20104;-80
2021/07/10 00:40:11;;;;;;;1.73;1.30;;;17.00;77.60;;;;;;5116380;28;20039;-80
2021/07/10 00:42:37;;;;;;;1.10;0.90;;;17.00;77.70;;;;;;5100038;28;20478;-81
2021/07/10 00:45:06;;;;;;;1.20;1.00;;;16.90;77.70;;;;;;5135589;28;20405;-80
2021/07/10 00:47:31;;;;;;;1.77;1.17;;;16.90;77.70;;;;;;5135637;28;20039;-81
2021/07/10 00:49:58;;;;;;;1.60;1.10;;;16.90;77.80;;;;;;5116786;28;20091;-80
2021/07/10 00:52:23;;;;;;;1.75;1.30;;;16.90;77.90;;;;;;5100053;28;20118;-80
2021/07/10 00:54:49;;;;;;;1.75;1.20;;;16.90;78.00;;;;;;5100271;28;20130;-80
2021/07/10 00:57:15;;;;;;;2.05;1.30;;;16.80;78.00;;;;;;5100344;28;20080;-81
2021/07/10 00:59:41;;;;;;;1.30;1.02;;;16.90;78.10;;;;;;5135430;28;20035;-80
2021/07/10 01:02:08;;;;;;;1.55;1.23;;;16.80;78.10;;;;;;5116708;28;20118;-80
2021/07/10 01:04:33;;;;;;;1.70;1.20;;;16.80;78.20;;;;;;5099600;28;20134;-80
2021/07/10 01:06:59;;;;;;;2.28;1.38;;;16.80;78.20;;;;;;5082627;28;20131;-80
2021/07/10 01:09:24;;;;;;;1.98;1.33;;;16.80;78.20;;;;;;5082594;28;20043;-80
2021/07/10 01:11:51;;;;;;;1.83;1.23;;;16.80;78.20;;;;;;5117079;28;20490;-81
2021/07/10 01:14:18;;;;;;;1.60;1.23;;;16.80;78.20;;;;;;5100005;28;20046;-80
2021/07/10 01:16:43;;;;;;;1.15;1.00;;;16.80;78.20;;;;;;5116384;28;20051;-81
2021/07/10 01:19:09;;;;;;;2.05;1.40;;;16.80;78.20;;;;;;5116546;28;20043;-80
2021/07/10 01:21:34;;;;;;;1.90;1.30;;;16.90;78.20;;;;;;5116402;28;20050;-80
2021/07/10 01:24:00;;;;;;;1.60;1.25;;;16.90;78.20;;;;;;5099299;28;20046;-80
2021/07/10 01:26:25;;;;;;;1.40;1.20;;;16.90;78.20;;;;;;5116290;28;20035;-80
2021/07/10 01:28:51;;;;;;;1.27;1.05;;;16.90;78.20;;;;;;5082386;28;20054;-80
2021/07/10 01:31:19;;;;;;;1.27;0.88;;;16.90;78.20;;;;;;5116313;28;20043;-80
2021/07/10 01:33:44;;;;;;;2.08;1.10;;;17.00;78.30;;;;;;5134539;28;20050;-80
2021/07/10 01:36:10;;;;;;;1.02;0.90;;;17.00;78.30;;;;;;5116726;28;20052;-80
2021/07/10 01:38:36;;;;;;;1.23;1.00;;;17.00;78.30;;;;;;5099687;28;20039;-80
2021/07/10 01:41:01;;;;;;;1.52;1.10;;;17.00;78.30;;;;;;5116034;28;20482;-80
2021/07/10 01:43:27;;;;;;;1.10;1.00;;;17.00;78.30;;;;;;5099058;28;20104;-80
2021/07/10 01:45:53;;;;;;;1.67;0.98;;;17.10;78.30;;;;;;5116133;28;20039;-80
2021/07/10 01:48:19;;;;;;;1.90;1.38;;;17.10;78.40;;;;;;5099042;28;20043;-80
2021/07/10 01:50:47;;;;;;;1.27;1.10;;;17.10;78.30;;;;;;5099208;28;20031;-80
2021/07/10 01:53:15;;;;;;;1.42;1.00;;;17.10;78.40;;;;;;5081416;28;20126;-80
2021/07/10 01:55:41;;;;;;;1.55;1.10;;;17.10;78.50;;;;;;5115510;28;20070;-81
2021/07/10 01:58:07;;;;;;;2.42;1.50;;;17.10;78.50;;;;;;5098893;28;20039;-80
2021/07/10 02:00:38;;;;;;;1.65;1.25;;;17.00;78.60;;;;;;5098668;28;20031;-80
2021/07/10 02:03:04;;;;;;;2.13;1.20;;;17.10;78.70;;;;;;5116076;28;20202;-81
2021/07/10 02:05:30;;;;;;;1.92;1.20;;;17.00;78.80;;;;;;5134470;28;20136;-80
2021/07/10 02:07:58;;;;;;;1.38;1.10;;;17.00;78.80;;;;;;5081730;28;20043;-80
2021/07/10 02:10:26;;;;;;;1.73;1.30;;;17.00;78.80;;;;;;5098597;28;20122;-80
2021/07/10 02:12:56;;;;;;;2.67;1.40;;;17.10;78.90;;;;;;5115574;28;20036;-80
2021/07/10 02:15:22;;;;;;;2.25;1.50;;;17.00;78.80;;;;;;5116005;28;20486;-80
2021/07/10 02:17:48;;;;;;;2.42;1.40;;;17.10;78.90;;;;;;5115427;28;20053;-80
2021/07/10 02:20:19;;;;;;;1.58;1.27;;;17.10;79.00;;;;;;5081990;28;20127;-80
2021/07/10 02:22:45;;;;;;;1.90;1.20;;;17.00;79.00;;;;;;5098419;28;20051;-80
2021/07/10 02:25:13;;;;;;;1.83;1.35;;;17.00;79.10;;;;;;5115556;28;20039;-80
2021/07/10 02:27:39;;;;;;;2.38;1.33;;;17.00;79.20;;;;;;5115825;28;20051;-80
2021/07/10 02:30:07;;;;;;;1.40;1.20;;;17.00;79.20;;;;;;5081401;28;20043;-80
2021/07/10 02:32:33;;;;;;;1.42;1.10;;;17.00;79.30;;;;;;5115217;28;20058;-80
2021/07/10 02:34:58;;;;;;;2.65;1.38;;;17.00;79.50;;;;;;5098046;28;20644;-80
2021/07/10 02:37:25;;;;;;;1.67;1.33;;;16.90;79.40;;;;;;5098366;28;20125;-80
2021/07/10 02:39:50;;;;;;;1.83;1.35;;;16.90;79.50;;;;;;5115682;28;20035;-80
2021/07/10 02:42:16;;;;;;;1.80;1.25;;;16.80;79.60;;;;;;5115447;28;20043;-80
2021/07/10 02:44:41;;;;;;;1.75;1.20;;;16.90;80.40;;;;;;5097834;28;20084;-80
2021/07/10 02:47:07;;;;;;;1.95;1.40;;;16.80;79.80;;;;;;5115008;28;20131;-80
2021/07/10 02:49:33;;;;;;;1.83;1.30;;;16.70;79.80;;;;;;5081045;28;20092;-81
2021/07/10 02:51:58;;;;;;;2.67;1.63;;;16.70;79.90;;;;;;5114847;28;20038;-80
2021/07/10 02:54:24;;;;;;;2.20;1.48;;;16.80;80.10;;;;;;5133885;28;20259;-80
2021/07/10 02:56:49;;;;;;;2.15;1.42;;;16.60;80.00;;;;;;5097892;28;20039;-80
2021/07/10 02:59:15;;;;;;;2.15;1.38;;;16.70;80.10;;;;;;5081033;28;20039;-80
2021/07/10 03:01:41;;;;;;;2.92;1.70;;;16.60;80.10;;;;;;5114850;28;20043;-80
2021/07/10 03:04:06;;;;;;;2.40;1.50;;;16.60;80.10;;;;;;5097686;28;20050;-80
2021/07/10 03:06:32;;;;;;;1.48;1.20;;;16.60;80.20;;;;;;5133188;28;20058;-81
2021/07/10 03:08:57;;;;;;;1.73;1.20;;;16.60;80.30;;;;;;5133130;28;20043;-80
2021/07/10 03:11:23;;;;;;;2.28;1.40;;;16.50;80.30;;;;;;5115397;28;20360;-80
2021/07/10 03:13:48;;;;;;;2.38;1.80;;;16.50;80.30;;;;;;5115086;28;20043;-80
2021/07/10 03:16:14;;;;;;;1.85;1.25;;;16.50;80.40;;;;;;5133535;28;20032;-80
2021/07/10 03:18:39;;;;;;;1.17;0.90;;;16.50;80.40;;;;;;5114799;28;20031;-80
2021/07/10 03:21:05;;;;;;;2.33;1.50;;;16.40;80.40;;;;;;5114521;28;20043;-80
2021/07/10 03:23:31;;;;;;;1.70;1.20;;;16.40;80.50;;;;;;5132785;28;20126;-81
2021/07/10 03:25:56;;;;;;;2.83;1.80;;;16.40;80.60;;;;;;5114576;28;20036;-80
2021/07/10 03:28:22;;;;;;;1.83;1.40;;;16.40;80.60;;;;;;5080397;28;20043;-80
2021/07/10 03:30:51;;;;;;;2.08;1.42;;;16.30;80.70;;;;;;5114405;28;20054;-81
2021/07/10 03:33:18;;;;;;;1.55;1.08;;;16.30;80.70;;;;;;5097659;28;20035;-79
2021/07/10 03:35:43;;;;;;;2.22;1.60;;;16.30;80.70;;;;;;5132646;28;20036;-80
2021/07/10 03:38:09;;;;;;;1.92;1.20;;;16.30;80.70;;;;;;5114966;28;20042;-80
2021/07/10 03:40:35;;;;;;;1.92;1.40;;;16.20;80.80;;;;;;5114364;28;20498;-80
2021/07/10 03:43:00;;;;;;;2.75;1.40;;;16.20;80.80;;;;;;5114336;28;20478;-80
2021/07/10 03:45:26;;;;;;;2.45;1.50;;;16.20;80.80;;;;;;5114431;28;20039;-80
2021/07/10 03:47:51;;;;;;;1.52;1.23;;;16.20;80.90;;;;;;5080473;28;20046;-80
2021/07/10 03:50:18;;;;;;;2.65;1.40;;;16.10;80.80;;;;;;5114376;28;20037;-80
2021/07/10 03:52:44;;;;;;;2.63;1.58;;;16.30;80.90;;;;;;5114832;28;20080;-80
2021/07/10 03:55:11;;;;;;;1.88;1.20;;;16.30;80.80;;;;;;5114237;28;20039;-80
2021/07/10 03:57:38;;;;;;;2.08;1.30;;;16.30;80.80;;;;;;5114094;28;20443;-80
2021/07/10 04:00:07;;;;;;;1.40;1.10;;;16.30;80.70;;;;;;5097067;28;20078;-80
2021/07/10 04:02:33;;;;;;;1.25;1.15;;;16.30;80.70;;;;;;5097659;28;20074;-81
2021/07/10 04:04:58;;;;;;;1.50;0.98;;;16.30;80.70;;;;;;5114156;28;20066;-80
2021/07/10 04:07:24;;;;;;;2.03;1.30;;;16.30;80.70;;;;;;5113983;28;20043;-80
2021/07/10 04:09:50;;;;;;;1.98;1.10;;;16.40;80.70;;;;;;5114065;28;20050;-81
2021/07/10 04:12:15;;;;;;;1.85;1.38;;;16.40;80.60;;;;;;5097102;28;20092;-80
2021/07/10 04:14:41;;;;;;;2.08;1.33;;;16.50;80.60;;;;;;5114055;28;20095;-80
2021/07/10 04:17:07;;;;;;;1.52;1.20;;;16.40;80.60;;;;;;5117571;28;20062;-80
2021/07/10 04:19:33;;;;;;;1.65;1.10;;;16.40;80.50;;;;;;5117489;28;20054;-80
2021/07/10 04:21:58;;;;;;;1.70;1.30;;;16.40;80.50;;;;;;5135858;28;20031;-80
2021/07/10 04:24:24;;;;;;;1.95;1.20;;;16.40;80.50;;;;;;5117484;28;20877;-80
2021/07/10 04:26:50;;;;;;;1.77;1.10;;;16.40;80.50;;;;;;5136351;28;20474;-80
2021/07/10 04:29:15;;;;;;;1.60;1.02;;;16.50;80.60;;;;;;5100182;28;20105;-81
2021/07/10 04:31:41;;;;;;;1.48;1.00;;;16.50;80.60;;;;;;5117296;28;20046;-80
2021/07/10 04:34:06;;;;;;;1.90;1.33;;;16.60;80.60;;;;;;5136130;27;20363;-80
2021/07/10 04:36:32;;;;;;;1.77;1.30;;;16.50;80.50;;;;;;5117528;28;20108;-80
2021/07/10 04:38:57;;;;;;;1.58;1.30;;;16.50;80.50;;;;;;5135731;28;20050;-81
2021/07/10 04:41:23;;;;;;;1.58;1.10;;;16.60;80.60;;;;;;5117266;28;20043;-80
2021/07/10 04:43:49;;;;;;;1.80;1.15;;;16.60;80.50;;;;;;5116869;28;20047;-81
2021/07/10 04:46:14;;;;;;;2.83;1.50;;;16.60;80.40;;;;;;5116904;28;20039;-81
2021/07/10 04:48:40;;;;;;;2.38;1.27;;;16.60;80.40;;;;;;5099856;28;20410;-81
2021/07/10 04:51:06;;;;;;;1.75;1.40;;;16.70;80.40;;;;;;5135421;28;20073;-80
2021/07/10 04:53:31;;;;;;;2.05;1.20;;;16.80;80.40;;;;;;5116944;28;20042;-80
2021/07/10 04:55:57;;;;;;;2.80;1.52;;;16.90;80.40;;;;;;5099959;28;20893;-80
2021/07/10 04:58:22;;;;;;;2.55;1.27;;;16.80;80.30;;;;;;5117095;28;20035;-80
2021/07/10 05:00:49;;;;;;;1.88;1.30;;;16.90;80.40;;;;;;5099990;28;20537;-80
2021/07/10 05:03:15;;;;;;;3.00;1.60;;;17.00;80.30;;;;;;5116806;28;20145;-80
2021/07/10 05:05:41;;;;;;;1.90;1.40;;;17.00;80.30;;;;;;5099670;28;20498;-80
2021/07/10 05:08:08;;;;;;;2.30;1.67;;;17.10;80.40;;;;;;5117121;28;20040;-80
2021/07/10 05:10:34;;;;;;;3.05;1.67;;;17.10;80.40;;;;;;5116430;28;20050;-81
2021/07/10 05:12:59;;;;;;;3.33;2.10;;;17.10;80.30;;;;;;5082593;28;20050;-80
2021/07/10 05:15:25;;;;;;;2.78;1.50;;;17.10;80.30;;;;;;5116520;28;20487;-80
2021/07/10 05:17:51;;;;;;;3.53;2.25;;;17.10;80.30;;;;;;5116441;28;20047;-80
2021/07/10 05:20:16;;;;;;;3.40;1.80;;;17.10;80.40;;;;;;5099432;28;20073;-80
2021/07/10 05:22:42;;;;;;;2.38;1.70;;;17.20;80.40;;;;;;5116611;28;20046;-80
2021/07/10 05:25:09;;;;;;;3.70;2.35;;;17.20;80.30;;;;;;5116358;28;20047;-80
2021/07/10 05:27:35;;;;;;;2.80;2.08;;;17.30;80.30;;;;;;5116694;28;20040;-80
2021/07/10 05:30:01;;;;;;;3.90;2.20;;;17.40;80.40;;;;;;5099085;28;20054;-80
2021/07/10 05:32:27;;;;;;;2.97;2.00;;;17.40;80.30;;;;;;5099701;28;20035;-80
2021/07/10 05:34:52;;;;;;;2.63;1.90;;;17.30;80.20;;;;;;5116580;28;20050;-81
2021/07/10 05:37:18;;;;;;;3.30;2.13;;;17.50;80.30;;;;;;5116271;28;20115;-80
2021/07/10 05:39:43;;;;;;;2.35;1.77;;;17.50;80.00;;;;;;5134324;28;20035;-80
2021/07/10 05:42:10;;;;;;;3.00;2.08;;;17.60;80.10;;;;;;5134471;28;20050;-80
2021/07/10 05:44:36;;;;;;;3.97;2.10;;;17.60;80.10;;;;;;5098950;28;20404;-80
2021/07/10 05:47:02;;;;;;;3.22;2.10;;;17.70;80.00;;;;;;5098917;28;20035;-80
2021/07/10 05:49:28;;;;;;;3.35;2.17;;;17.70;79.80;;;;;;5099111;28;20096;-80
2021/07/10 05:51:54;;;;;;;3.90;2.50;;;17.90;79.80;;;;;;5116370;28;20502;-80
2021/07/10 05:54:19;;;;;;;3.85;2.45;;;18.00;79.70;;;;;;5115261;28;20050;-81
2021/07/10 05:56:45;;;;;;;3.80;2.55;;;18.10;79.60;;;;;;5134371;28;20172;-80
2021/07/10 05:59:19;;;;;;;3.13;2.40;;;18.20;79.40;;;;;;5115732;28;20039;-83
2021/07/10 08:10:16;;;;;;;3.80;2.50;;;20.90;77.00;;;;;;4840190;29;20963;-80
2021/07/10 08:12:49;;;;;;;3.15;1.90;;;21.00;76.50;;;;;;4841454;29;20567;-80
2021/07/10 08:15:24;;;;;;;3.47;2.20;;;21.10;76.40;;;;;;4807820;29;20039;-81
2021/07/10 08:17:51;;;;;;;3.78;2.33;;;21.20;76.30;;;;;;4812717;29;20058;-79
2021/07/10 08:20:17;;;;;;;5.00;2.90;;;21.10;76.40;;;;;;4847570;29;20034;-78
2021/07/10 08:22:45;;;;;;;4.22;2.45;;;21.10;76.50;;;;;;4833632;29;20073;-76
2021/07/10 08:25:12;;;;;;;4.95;2.80;;;21.10;76.40;;;;;;4830322;29;20104;-80
2021/07/10 08:27:38;;;;;;;3.83;2.60;;;21.20;76.30;;;;;;4851232;29;20050;-77
2021/07/10 08:30:05;;;;;;;3.03;2.13;;;21.20;76.20;;;;;;4860002;29;20041;-78
2021/07/10 08:32:31;;;;;;;3.30;2.25;;;21.20;76.20;;;;;;4865048;29;20038;-78
2021/07/10 08:34:57;;;;;;;3.58;2.35;;;21.30;76.10;;;;;;4865638;29;20509;-78
2021/07/10 08:37:22;;;;;;;3.30;2.05;;;21.30;76.10;;;;;;4872039;29;20142;-78
2021/07/10 08:39:48;;;;;;;3.60;2.17;;;21.40;76.00;;;;;;4888601;29;20044;-81
2021/07/10 08:42:14;;;;;;;3.53;2.13;;;21.50;75.80;;;;;;4900470;29;20051;-79
2021/07/10 08:44:41;;;;;;;2.30;1.60;;;21.50;75.50;;;;;;4903782;29;20044;-78
2021/07/10 08:47:13;;;;;;;2.45;1.67;;;21.60;75.20;;;;;;4927111;28;20055;-79
2021/07/10 08:49:39;;;;;;;1.85;1.38;;;21.60;75.20;;;;;;4942691;28;20464;-77
2021/07/10 08:52:05;;;;;;;2.38;1.55;;;21.80;75.10;;;;;;4960399;28;20086;-80
2021/07/10 08:54:32;;;;;;;2.22;1.50;;;21.70;74.80;;;;;;4944267;28;20455;-79
2021/07/10 08:56:57;;;;;;;2.70;1.75;;;21.80;74.20;;;;;;4956456;28;20043;-79
2021/07/10 08:59:23;;;;;;;1.75;1.30;;;21.80;74.10;;;;;;4922566;28;20105;-78
2021/07/10 09:01:53;;;;;;;1.50;1.20;;;21.80;74.00;;;;;;4922377;28;20101;-78
2021/07/10 09:04:20;;;;;;;1.15;1.05;;;21.80;73.80;;;;;;4925231;29;20046;-76
2021/07/10 09:06:46;;;;;;;2.35;1.40;;;21.80;73.60;;;;;;4960027;28;20043;-78
2021/07/10 09:09:12;;;;;;;1.50;1.17;;;21.90;73.60;;;;;;4963327;28;20097;-78
2021/07/10 09:11:39;;;;;;;1.33;1.23;;;21.90;73.50;;;;;;4962504;28;20037;-77
2021/07/10 09:14:05;;;;;;;2.08;1.10;;;22.00;73.60;;;;;;4949474;28;20043;-78
2021/07/10 09:16:35;;;;;;;1.38;1.20;;;22.00;73.20;;;;;;4955360;28;20077;-77
2021/07/10 09:19:06;;;;;;;1.17;1.08;;;22.00;73.20;;;;;;4962174;28;20039;-76
2021/07/10 09:21:39;;;;;;;1.00;0.90;;;21.90;73.10;;;;;;4955532;28;20039;-75
2021/07/10 09:24:08;;;;;;;2.03;1.40;;;21.90;73.10;;;;;;4955226;28;20039;-78
2021/07/10 09:26:40;;;;;;;2.15;1.30;;;22.00;72.70;;;;;;4940263;28;20094;-77
2021/07/10 09:29:14;;;;;;;1.50;1.30;;;22.10;72.40;;;;;;4956626;28;20491;-77
2021/07/10 09:31:46;;;;;;;1.42;1.08;;;22.20;72.30;;;;;;4923842;28;20031;-77
2021/07/10 09:34:17;;;;;;;1.55;1.30;;;22.30;72.20;;;;;;4939210;28;20039;-78
2021/07/10 09:36:58;;;;;;;2.22;1.48;;;22.30;71.80;;;;;;4923668;28;20047;-78
2021/07/10 09:39:27;;;;;;;1.20;0.95;;;22.40;71.60;;;;;;4960286;28;20094;-78
2021/07/10 09:41:54;;;;;;;2.35;1.40;;;22.30;71.70;;;;;;4955014;28;20126;-77
2021/07/10 09:44:19;;;;;;;1.48;1.08;;;22.40;71.80;;;;;;4914751;29;20504;-78
2021/07/10 09:46:45;;;;;;;2.22;1.50;;;22.50;71.50;;;;;;4903268;29;20052;-76
2021/07/10 09:49:29;;;;;;;2.70;1.27;;;22.50;71.20;;;;;;4898942;29;20071;-77
2021/07/10 09:51:58;;;;;;;1.85;1.40;;;22.50;71.40;;;;;;4903418;29;20536;-78
2021/07/10 09:54:29;;;;;;;1.48;1.30;;;22.50;71.40;;;;;;4894736;29;20043;-77
2021/07/10 09:57:10;;;;;;;1.70;1.35;;;22.50;71.50;;;;;;4916664;29;20048;-77
2021/07/10 09:59:46;;;;;;;2.47;1.55;;;22.50;71.50;;;;;;4934108;29;20087;-77
2021/07/10 10:02:15;;;;;;;2.00;1.30;;;22.50;71.50;;;;;;4934091;29;20557;-77
2021/07/10 10:04:41;;;;;;;2.73;1.87;;;22.50;71.50;;;;;;4915432;29;20393;-77
2021/07/10 10:07:11;;;;;;;2.67;1.80;;;22.50;71.40;;;;;;4917158;29;20040;-77
2021/07/10 10:09:37;;;;;;;1.98;1.50;;;22.60;71.30;;;;;;4899391;29;20092;-78
2021/07/10 10:12:08;;;;;;;1.55;1.20;;;22.70;71.00;;;;;;4899122;29;20104;-77
2021/07/10 10:14:40;;;;;;;1.67;1.35;;;22.60;71.00;;;;;;4924126;29;20031;-78
2021/07/10 10:17:06;;;;;;;2.67;1.70;;;22.60;71.20;;;;;;4941679;28;20123;-78
2021/07/10 10:19:34;;;;;;;2.00;1.33;;;22.60;71.90;;;;;;4934632;28;20040;-77
2021/07/10 10:22:03;;;;;;;2.28;1.48;;;22.50;71.10;;;;;;4934071;29;20036;-77
2021/07/10 10:24:29;;;;;;;2.53;1.80;;;22.60;71.30;;;;;;4934492;29;20107;-77
2021/07/10 10:26:57;;;;;;;2.00;1.60;;;22.60;71.00;;;;;;4933401;28;20062;-76
2021/07/10 10:29:25;;;;;;;1.60;1.40;;;22.50;71.30;;;;;;4933758;28;20058;-76
2021/07/10 10:31:52;;;;;;;1.80;1.40;;;22.50;71.30;;;;;;4932861;29;20485;-77
2021/07/10 10:34:18;;;;;;;1.80;1.40;;;22.60;71.20;;;;;;4932316;29;20043;-77
2021/07/10 10:36:46;;;;;;;2.97;2.10;;;22.90;71.00;;;;;;4937035;29;20039;-76
2021/07/10 10:39:17;;;;;;;2.20;1.70;;;23.10;70.30;;;;;;4936788;28;20047;-77
2021/07/10 10:41:46;;;;;;;2.00;1.80;;;23.20;69.60;;;;;;4937377;28;20483;-77
2021/07/10 10:44:13;;;;;;;2.00;1.50;;;23.30;69.40;;;;;;4937389;28;20062;-76
2021/07/10 10:46:49;;;;;;;1.77;1.48;;;23.50;69.10;;;;;;4939672;28;20065;-77
2021/07/10 10:49:39;;;;;;;1.63;1.23;;;23.70;68.90;;;;;;4955703;28;20118;-77
2021/07/10 10:52:32;;;;;;;1.23;1.10;;;23.80;68.80;;;;;;4937430;28;20122;-77
2021/07/10 10:55:13;;;;;;;1.63;1.35;;;24.00;68.60;;;;;;4936940;28;20041;-77
2021/07/10 10:57:48;;;;;;;2.58;1.23;;;24.00;68.40;;;;;;4954391;28;20032;-77
2021/07/10 11:00:29;;;;;;;2.08;1.50;;;24.00;68.50;;;;;;4936658;28;20123;-77
2021/07/10 11:03:06;;;;;;;1.90;1.45;;;24.00;68.50;;;;;;4954061;28;20049;-77
2021/07/10 11:05:38;;;;;;;1.83;1.30;;;24.00;68.20;;;;;;4954357;28;20031;-77
2021/07/10 11:08:26;;;;;;;1.58;1.40;;;23.70;68.60;;;;;;4920645;28;20047;-77
2021/07/10 11:11:16;;;;;;;1.65;1.40;;;23.60;69.20;;;;;;4936569;28;20082;-77
2021/07/10 11:13:55;;;;;;;1.40;1.17;;;23.40;69.60;;;;;;4932593;29;20119;-77
2021/07/10 11:16:22;;;;;;;1.58;1.30;;;23.40;69.70;;;;;;4932722;29;20484;-77
2021/07/10 11:19:05;;;;;;;1.45;1.05;;;23.50;69.50;;;;;;4932448;29;20381;-77
2021/07/10 11:21:41;;;;;;;1.00;0.90;;;23.50;69.20;;;;;;4916416;29;20040;-78
2021/07/10 11:24:24;;;;;;;1.10;0.95;;;23.60;69.10;;;;;;4917195;29;20058;-78
2021/07/10 11:27:25;;;;;;;1.15;1.05;;;23.70;68.90;;;;;;4935833;29;20067;-77
2021/07/10 11:30:10;;;;;;;1.42;1.15;;;23.80;68.70;;;;;;4927229;29;20055;-77
2021/07/10 11:32:43;;;;;;;1.05;0.95;;;23.90;68.60;;;;;;4935606;29;20047;-78
2021/07/10 11:35:09;;;;;;;2.20;1.48;;;23.90;68.40;;;;;;4920420;29;20031;-80
